sensor_id;sensor_type;location;lat;lon;timestamp;pressure;altitude;pressure_sealevel;temperature;humidity
4705;BME280;2366;51.332;6.610;2022-12-20T00:00:52;101437.50;;;12.32;71.83
4705;BME280;2366;51.332;6.610;2022-12-20T00:03:17;101433.13;;;12.31;71.89
4705;BME280;2366;51.332;6.610;2022-12-20T00:05:44;101427.78;;;12.31;71.83
4705;BME280;2366;51.332;6.610;2022-12-20T00:08:10;101423.44;;;12.30;71.85
4705;BME280;2366;51.332;6.610;2022-12-20T00:10:41;101410.34;;;12.27;71.75
4705;BME280;2366;51.332;6.610;2022-12-20T00:13:07;101421.03;;;12.26;71.86
4705;BME280;2366;51.332;6.610;2022-12-20T00:15:33;101419.44;;;12.23;71.72
4705;BME280;2366;51.332;6.610;2022-12-20T00:17:59;101410.84;;;12.18;72.23
4705;BME280;2366;51.332;6.610;2022-12-20T00:20:25;101403.81;;;12.17;71.94
4705;BME280;2366;51.332;6.610;2022-12-20T00:22:51;101395.66;;;12.20;72.16
4705;BME280;2366;51.332;6.610;2022-12-20T00:25:16;101391.09;;;12.22;71.95
4705;BME280;2366;51.332;6.610;2022-12-20T00:27:41;101382.00;;;12.26;72.07
4705;BME280;2366;51.332;6.610;2022-12-20T00:30:07;101384.91;;;12.38;71.48
4705;BME280;2366;51.332;6.610;2022-12-20T00:32:32;101388.16;;;12.43;71.44
4705;BME280;2366;51.332;6.610;2022-12-20T00:34:58;101384.00;;;12.53;71.25
4705;BME280;2366;51.332;6.610;2022-12-20T00:37:23;101383.22;;;12.51;71.05
4705;BME280;2366;51.332;6.610;2022-12-20T00:39:49;101382.31;;;12.52;70.99
4705;BME280;2366;51.332;6.610;2022-12-20T00:42:14;101388.19;;;12.57;70.75
4705;BME280;2366;51.332;6.610;2022-12-20T00:44:40;101373.69;;;12.63;70.59
4705;BME280;2366;51.332;6.610;2022-12-20T00:47:05;101381.38;;;12.67;70.74
4705;BME280;2366;51.332;6.610;2022-12-20T00:49:31;101376.06;;;12.67;70.24
4705;BME280;2366;51.332;6.610;2022-12-20T00:51:56;101374.25;;;12.68;70.02
4705;BME280;2366;51.332;6.610;2022-12-20T00:54:21;101364.94;;;12.75;70.06
4705;BME280;2366;51.332;6.610;2022-12-20T00:56:47;101373.81;;;12.76;69.76
4705;BME280;2366;51.332;6.610;2022-12-20T00:59:12;101383.97;;;12.83;69.21
4705;BME280;2366;51.332;6.610;2022-12-20T01:01:37;101380.47;;;12.83;68.95
4705;BME280;2366;51.332;6.610;2022-12-20T01:04:03;101380.47;;;12.83;69.38
4705;BME280;2366;51.332;6.610;2022-12-20T01:06:29;101366.97;;;12.86;69.03
4705;BME280;2366;51.332;6.610;2022-12-20T01:08:55;101366.72;;;12.90;68.91
4705;BME280;2366;51.332;6.610;2022-12-20T01:11:23;101360.13;;;12.96;68.52
4705;BME280;2366;51.332;6.610;2022-12-20T01:13:51;101352.91;;;12.98;68.16
4705;BME280;2366;51.332;6.610;2022-12-20T01:16:23;101368.81;;;13.00;68.21
4705;BME280;2366;51.332;6.610;2022-12-20T01:18:49;101358.25;;;12.98;67.91
4705;BME280;2366;51.332;6.610;2022-12-20T01:21:16;101363.56;;;12.98;68.01
4705;BME280;2366;51.332;6.610;2022-12-20T01:23:42;101371.56;;;12.98;68.19
4705;BME280;2366;51.332;6.610;2022-12-20T01:26:10;101359.97;;;12.99;67.68
4705;BME280;2366;51.332;6.610;2022-12-20T01:28:38;101365.09;;;13.02;67.69
4705;BME280;2366;51.332;6.610;2022-12-20T01:31:12;101362.22;;;13.05;67.64
4705;BME280;2366;51.332;6.610;2022-12-20T01:33:38;101363.19;;;13.04;67.18
4705;BME280;2366;51.332;6.610;2022-12-20T01:36:05;101361.47;;;13.03;67.59
4705;BME280;2366;51.332;6.610;2022-12-20T01:38:31;101355.78;;;13.09;67.13
4705;BME280;2366;51.332;6.610;2022-12-20T01:40:57;101356.91;;;13.05;67.40
4705;BME280;2366;51.332;6.610;2022-12-20T01:43:24;101352.91;;;12.98;67.46
4705;BME280;2366;51.332;6.610;2022-12-20T01:45:50;101359.66;;;12.89;67.84
4705;BME280;2366;51.332;6.610;2022-12-20T01:48:17;101354.44;;;12.88;68.03
4705;BME280;2366;51.332;6.610;2022-12-20T01:50:46;101358.63;;;12.92;67.96
4705;BME280;2366;51.332;6.610;2022-12-20T01:53:14;101363.09;;;12.91;67.90
4705;BME280;2366;51.332;6.610;2022-12-20T01:55:40;101363.94;;;12.92;68.13
4705;BME280;2366;51.332;6.610;2022-12-20T01:58:08;101354.06;;;12.94;68.16
4705;BME280;2366;51.332;6.610;2022-12-20T02:00:35;101353.13;;;12.95;68.07
4705;BME280;2366;51.332;6.610;2022-12-20T02:03:04;101340.75;;;12.94;68.09
4705;BME280;2366;51.332;6.610;2022-12-20T02:05:36;101330.09;;;12.94;67.93
4705;BME280;2366;51.332;6.610;2022-12-20T02:08:03;101330.22;;;12.92;68.21
4705;BME280;2366;51.332;6.610;2022-12-20T02:14:07;101332.09;;;13.05;67.50
4705;BME280;2366;51.332;6.610;2022-12-20T02:16:43;101330.13;;;13.08;67.34
4705;BME280;2366;51.332;6.610;2022-12-20T02:30:21;101324.69;;;13.24;67.24
4705;BME280;2366;51.332;6.610;2022-12-20T02:32:56;101317.75;;;13.22;67.52
4705;BME280;2366;51.332;6.610;2022-12-20T02:35:27;101313.66;;;13.16;68.20
4705;BME280;2366;51.332;6.610;2022-12-20T02:37:57;101307.47;;;13.15;68.73
4705;BME280;2366;51.332;6.610;2022-12-20T02:40:27;101319.72;;;13.18;68.93
4705;BME280;2366;51.332;6.610;2022-12-20T02:43:03;101334.94;;;13.16;69.06
4705;BME280;2366;51.332;6.610;2022-12-20T02:45:50;101341.31;;;13.13;69.26
4705;BME280;2366;51.332;6.610;2022-12-20T02:48:17;101321.53;;;13.18;68.95
4705;BME280;2366;51.332;6.610;2022-12-20T02:50:49;101319.44;;;13.23;69.15
4705;BME280;2366;51.332;6.610;2022-12-20T02:53:17;101335.81;;;13.17;69.96
4705;BME280;2366;51.332;6.610;2022-12-20T02:55:54;101327.53;;;13.07;71.19
4705;BME280;2366;51.332;6.610;2022-12-20T02:58:28;101339.69;;;12.97;71.85
4705;BME280;2366;51.332;6.610;2022-12-20T03:00:58;101331.22;;;12.90;72.78
4705;BME280;2366;51.332;6.610;2022-12-20T03:03:30;101336.84;;;12.85;72.98
4705;BME280;2366;51.332;6.610;2022-12-20T03:05:55;101338.84;;;12.82;73.37
4705;BME280;2366;51.332;6.610;2022-12-20T03:08:22;101335.69;;;12.75;74.22
4705;BME280;2366;51.332;6.610;2022-12-20T03:10:49;101328.88;;;12.71;74.84
4705;BME280;2366;51.332;6.610;2022-12-20T03:13:16;101344.63;;;12.74;75.00
4705;BME280;2366;51.332;6.610;2022-12-20T03:15:41;101333.31;;;12.70;75.13
4705;BME280;2366;51.332;6.610;2022-12-20T03:18:07;101335.41;;;12.65;75.83
4705;BME280;2366;51.332;6.610;2022-12-20T03:20:32;101327.50;;;12.49;76.19
4705;BME280;2366;51.332;6.610;2022-12-20T03:22:58;101332.91;;;12.48;76.48
4705;BME280;2366;51.332;6.610;2022-12-20T03:25:23;101326.03;;;12.44;77.16
4705;BME280;2366;51.332;6.610;2022-12-20T03:27:49;101316.44;;;12.41;76.97
4705;BME280;2366;51.332;6.610;2022-12-20T03:30:14;101326.41;;;12.38;77.79
4705;BME280;2366;51.332;6.610;2022-12-20T03:32:40;101319.53;;;12.33;78.13
4705;BME280;2366;51.332;6.610;2022-12-20T03:35:06;101310.38;;;12.39;77.83
4705;BME280;2366;51.332;6.610;2022-12-20T03:37:31;101315.00;;;12.36;77.97
4705;BME280;2366;51.332;6.610;2022-12-20T03:39:57;101312.81;;;12.42;78.03
4705;BME280;2366;51.332;6.610;2022-12-20T03:42:22;101315.50;;;12.42;78.09
4705;BME280;2366;51.332;6.610;2022-12-20T03:44:47;101317.50;;;12.39;77.78
4705;BME280;2366;51.332;6.610;2022-12-20T03:47:13;101317.94;;;12.31;78.14
4705;BME280;2366;51.332;6.610;2022-12-20T03:49:38;101314.34;;;12.32;78.24
4705;BME280;2366;51.332;6.610;2022-12-20T03:52:04;101320.59;;;12.31;77.78
4705;BME280;2366;51.332;6.610;2022-12-20T03:54:29;101311.00;;;12.28;78.30
4705;BME280;2366;51.332;6.610;2022-12-20T03:56:54;101321.44;;;12.31;77.90
4705;BME280;2366;51.332;6.610;2022-12-20T03:59:20;101317.53;;;12.23;78.24
4705;BME280;2366;51.332;6.610;2022-12-20T04:01:45;101325.78;;;12.18;78.86
4705;BME280;2366;51.332;6.610;2022-12-20T04:04:12;101322.34;;;12.16;79.10
4705;BME280;2366;51.332;6.610;2022-12-20T04:06:37;101312.06;;;12.10;79.48
4705;BME280;2366;51.332;6.610;2022-12-20T04:09:02;101324.91;;;12.18;79.50
4705;BME280;2366;51.332;6.610;2022-12-20T04:11:28;101319.03;;;12.12;79.38
4705;BME280;2366;51.332;6.610;2022-12-20T04:13:53;101316.38;;;12.12;79.88
4705;BME280;2366;51.332;6.610;2022-12-20T04:16:24;101311.13;;;12.11;79.74
4705;BME280;2366;51.332;6.610;2022-12-20T04:18:50;101318.25;;;12.10;79.67
4705;BME280;2366;51.332;6.610;2022-12-20T04:21:25;101309.41;;;12.10;80.14
4705;BME280;2366;51.332;6.610;2022-12-20T04:23:50;101316.38;;;12.12;79.82
4705;BME280;2366;51.332;6.610;2022-12-20T04:26:16;101308.25;;;12.00;80.47
4705;BME280;2366;51.332;6.610;2022-12-20T04:28:41;101310.91;;;12.00;81.02
4705;BME280;2366;51.332;6.610;2022-12-20T04:31:07;101310.91;;;12.00;81.34
4705;BME280;2366;51.332;6.610;2022-12-20T04:33:32;101315.19;;;12.02;81.02
4705;BME280;2366;51.332;6.610;2022-12-20T04:35:58;101317.66;;;12.05;81.51
4705;BME280;2366;51.332;6.610;2022-12-20T04:38:23;101311.31;;;12.08;81.20
4705;BME280;2366;51.332;6.610;2022-12-20T04:40:50;101320.50;;;12.02;81.37
4705;BME280;2366;51.332;6.610;2022-12-20T04:43:16;101333.78;;;12.02;81.89
4705;BME280;2366;51.332;6.610;2022-12-20T04:45:42;101305.41;;;12.03;81.46
4705;BME280;2366;51.332;6.610;2022-12-20T04:48:08;101317.13;;;12.15;81.40
4705;BME280;2366;51.332;6.610;2022-12-20T04:50:33;101305.13;;;12.07;81.14
4705;BME280;2366;51.332;6.610;2022-12-20T04:52:59;101297.00;;;11.95;81.91
4705;BME280;2366;51.332;6.610;2022-12-20T04:55:43;101301.47;;;11.94;82.80
4705;BME280;2366;51.332;6.610;2022-12-20T04:58:08;101294.13;;;11.99;83.06
4705;BME280;2366;51.332;6.610;2022-12-20T05:00:34;101298.56;;;11.99;83.14
4705;BME280;2366;51.332;6.610;2022-12-20T05:02:59;101284.69;;;11.94;84.14
4705;BME280;2366;51.332;6.610;2022-12-20T05:05:25;101293.44;;;11.96;83.85
4705;BME280;2366;51.332;6.610;2022-12-20T05:07:51;101287.34;;;11.94;84.11
4705;BME280;2366;51.332;6.610;2022-12-20T05:10:17;101284.00;;;11.90;84.31
4705;BME280;2366;51.332;6.610;2022-12-20T05:12:42;101284.09;;;11.88;84.98
4705;BME280;2366;51.332;6.610;2022-12-20T05:15:09;101281.06;;;11.95;84.97
4705;BME280;2366;51.332;6.610;2022-12-20T05:17:35;101270.44;;;11.95;84.89
4705;BME280;2366;51.332;6.610;2022-12-20T05:20:00;101272.94;;;11.98;84.59
4705;BME280;2366;51.332;6.610;2022-12-20T05:22:25;101262.47;;;11.95;84.95
4705;BME280;2366;51.332;6.610;2022-12-20T05:25:10;101260.78;;;11.94;84.86
4705;BME280;2366;51.332;6.610;2022-12-20T05:27:54;101255.00;;;11.85;85.01
4705;BME280;2366;51.332;6.610;2022-12-20T05:30:19;101251.34;;;11.88;84.54
4705;BME280;2366;51.332;6.610;2022-12-20T05:32:44;101261.28;;;11.84;84.48
4705;BME280;2366;51.332;6.610;2022-12-20T05:35:10;101265.97;;;11.79;84.51
4705;BME280;2366;51.332;6.610;2022-12-20T05:37:35;101261.44;;;11.81;84.15
4705;BME280;2366;51.332;6.610;2022-12-20T05:40:00;101246.47;;;11.80;84.25
4705;BME280;2366;51.332;6.610;2022-12-20T05:42:26;101244.38;;;11.85;84.29
4705;BME280;2366;51.332;6.610;2022-12-20T05:44:51;101246.94;;;11.87;83.51
4705;BME280;2366;51.332;6.610;2022-12-20T05:47:16;101245.94;;;11.89;83.75
4705;BME280;2366;51.332;6.610;2022-12-20T05:49:41;101242.97;;;11.80;83.91
4705;BME280;2366;51.332;6.610;2022-12-20T05:52:07;101229.47;;;11.83;83.70
4705;BME280;2366;51.332;6.610;2022-12-20T05:54:32;101243.53;;;11.85;83.72
4705;BME280;2366;51.332;6.610;2022-12-20T05:56:57;101231.34;;;11.97;83.01
4705;BME280;2366;51.332;6.610;2022-12-20T05:59:23;101226.03;;;11.97;82.66
4705;BME280;2366;51.332;6.610;2022-12-20T06:01:49;101223.50;;;11.95;82.75
4705;BME280;2366;51.332;6.610;2022-12-20T06:04:14;101231.88;;;11.87;82.05
4705;BME280;2366;51.332;6.610;2022-12-20T06:06:39;101228.97;;;11.92;81.99
4705;BME280;2366;51.332;6.610;2022-12-20T06:09:05;101229.38;;;12.00;81.93
4705;BME280;2366;51.332;6.610;2022-12-20T06:11:30;101240.56;;;12.05;81.27
4705;BME280;2366;51.332;6.610;2022-12-20T06:13:56;101242.88;;;12.11;81.21
4705;BME280;2366;51.332;6.610;2022-12-20T06:16:21;101238.53;;;12.25;80.31
4705;BME280;2366;51.332;6.610;2022-12-20T06:18:47;101222.94;;;12.19;80.18
4705;BME280;2366;51.332;6.610;2022-12-20T06:21:13;101233.34;;;12.23;80.14
4705;BME280;2366;51.332;6.610;2022-12-20T06:23:38;101227.13;;;12.23;80.13
4705;BME280;2366;51.332;6.610;2022-12-20T06:26:04;101223.63;;;12.22;80.04
4705;BME280;2366;51.332;6.610;2022-12-20T06:28:33;101218.03;;;12.27;79.28
4705;BME280;2366;51.332;6.610;2022-12-20T06:30:58;101212.44;;;12.17;79.76
4705;BME280;2366;51.332;6.610;2022-12-20T06:33:24;101206.44;;;12.13;79.37
4705;BME280;2366;51.332;6.610;2022-12-20T06:35:49;101201.03;;;12.15;79.43
4705;BME280;2366;51.332;6.610;2022-12-20T06:38:15;101200.56;;;12.23;79.45
4705;BME280;2366;51.332;6.610;2022-12-20T06:40:40;101203.97;;;12.25;79.10
4705;BME280;2366;51.332;6.610;2022-12-20T06:43:06;101186.00;;;12.14;79.55
4705;BME280;2366;51.332;6.610;2022-12-20T06:45:31;101182.22;;;12.18;78.69
4705;BME280;2366;51.332;6.610;2022-12-20T06:47:57;101173.97;;;12.23;78.84
4705;BME280;2366;51.332;6.610;2022-12-20T06:50:22;101168.28;;;12.29;78.06
4705;BME280;2366;51.332;6.610;2022-12-20T06:52:48;101191.84;;;12.35;78.02
4705;BME280;2366;51.332;6.610;2022-12-20T06:55:13;101188.25;;;12.36;77.91
4705;BME280;2366;51.332;6.610;2022-12-20T06:57:38;101178.75;;;12.32;77.94
4705;BME280;2366;51.332;6.610;2022-12-20T07:00:04;101179.59;;;12.32;77.54
4705;BME280;2366;51.332;6.610;2022-12-20T07:02:30;101183.19;;;12.31;77.63
4705;BME280;2366;51.332;6.610;2022-12-20T07:04:55;101186.44;;;12.37;77.21
4705;BME280;2366;51.332;6.610;2022-12-20T07:07:21;101188.03;;;12.39;76.97
4705;BME280;2366;51.332;6.610;2022-12-20T07:09:46;101185.75;;;12.33;77.62
4705;BME280;2366;51.332;6.610;2022-12-20T07:12:12;101191.84;;;12.35;77.20
4705;BME280;2366;51.332;6.610;2022-12-20T07:14:37;101179.22;;;12.39;77.21
4705;BME280;2366;51.332;6.610;2022-12-20T07:17:04;101174.19;;;12.48;76.91
4705;BME280;2366;51.332;6.610;2022-12-20T07:19:29;101177.50;;;12.52;76.43
4705;BME280;2366;51.332;6.610;2022-12-20T07:21:55;101165.91;;;12.53;75.86
4705;BME280;2366;51.332;6.610;2022-12-20T07:24:20;101151.47;;;12.57;75.84
4705;BME280;2366;51.332;6.610;2022-12-20T07:26:46;101160.22;;;12.59;75.46
4705;BME280;2366;51.332;6.610;2022-12-20T07:29:12;101154.34;;;12.54;75.88
4705;BME280;2366;51.332;6.610;2022-12-20T07:31:38;101149.31;;;12.49;75.68
4705;BME280;2366;51.332;6.610;2022-12-20T07:34:03;101142.34;;;12.61;75.18
4705;BME280;2366;51.332;6.610;2022-12-20T07:36:29;101149.78;;;12.56;75.59
4705;BME280;2366;51.332;6.610;2022-12-20T07:38:54;101149.78;;;12.56;75.33
4705;BME280;2366;51.332;6.610;2022-12-20T07:41:19;101144.84;;;12.50;75.28
4705;BME280;2366;51.332;6.610;2022-12-20T07:43:45;101143.09;;;12.49;75.77
4705;BME280;2366;51.332;6.610;2022-12-20T07:46:12;101152.91;;;12.48;75.22
4705;BME280;2366;51.332;6.610;2022-12-20T07:48:38;101159.34;;;12.44;75.66
4705;BME280;2366;51.332;6.610;2022-12-20T07:51:13;101164.31;;;12.50;75.50
4705;BME280;2366;51.332;6.610;2022-12-20T07:53:44;101167.63;;;12.54;75.20
4705;BME280;2366;51.332;6.610;2022-12-20T07:56:12;101173.13;;;12.51;75.36
4705;BME280;2366;51.332;6.610;2022-12-20T07:58:39;101179.97;;;12.55;75.07
4705;BME280;2366;51.332;6.610;2022-12-20T08:01:06;101188.13;;;12.66;74.88
4705;BME280;2366;51.332;6.610;2022-12-20T08:03:37;101175.59;;;12.68;74.72
4705;BME280;2366;51.332;6.610;2022-12-20T08:06:05;101179.41;;;12.64;74.51
4705;BME280;2366;51.332;6.610;2022-12-20T08:08:32;101170.47;;;12.65;74.45
4705;BME280;2366;51.332;6.610;2022-12-20T08:10:59;101166.28;;;12.61;74.71
4705;BME280;2366;51.332;6.610;2022-12-20T08:13:25;101161.94;;;12.60;74.66
4705;BME280;2366;51.332;6.610;2022-12-20T08:15:50;101161.13;;;12.72;74.09
4705;BME280;2366;51.332;6.610;2022-12-20T08:18:16;101163.25;;;12.67;74.28
4705;BME280;2366;51.332;6.610;2022-12-20T08:20:41;101164.56;;;12.74;74.24
4705;BME280;2366;51.332;6.610;2022-12-20T08:23:06;101149.94;;;12.82;73.59
4705;BME280;2366;51.332;6.610;2022-12-20T08:25:33;101155.44;;;12.79;73.71
4705;BME280;2366;51.332;6.610;2022-12-20T08:27:59;101145.25;;;12.85;73.57
4705;BME280;2366;51.332;6.610;2022-12-20T08:30:27;101158.78;;;12.82;73.81
4705;BME280;2366;51.332;6.610;2022-12-20T08:32:52;101162.97;;;12.72;74.09
4705;BME280;2366;51.332;6.610;2022-12-20T08:35:17;101166.09;;;12.79;73.95
4705;BME280;2366;51.332;6.610;2022-12-20T08:37:43;101178.25;;;12.83;73.61
4705;BME280;2366;51.332;6.610;2022-12-20T08:40:08;101163.25;;;12.82;73.51
4705;BME280;2366;51.332;6.610;2022-12-20T08:42:34;101164.94;;;12.83;73.72
4705;BME280;2366;51.332;6.610;2022-12-20T08:44:59;101166.38;;;12.88;73.35
4705;BME280;2366;51.332;6.610;2022-12-20T08:47:24;101162.56;;;12.92;73.04
4705;BME280;2366;51.332;6.610;2022-12-20T08:49:50;101158.69;;;12.84;73.34
4705;BME280;2366;51.332;6.610;2022-12-20T08:52:15;101161.13;;;12.87;73.60
4705;BME280;2366;51.332;6.610;2022-12-20T08:54:41;101157.81;;;12.83;73.62
4705;BME280;2366;51.332;6.610;2022-12-20T08:57:07;101158.09;;;12.93;73.07
4705;BME280;2366;51.332;6.610;2022-12-20T08:59:32;101163.59;;;12.90;73.10
4705;BME280;2366;51.332;6.610;2022-12-20T09:01:57;101156.34;;;12.92;73.12
4705;BME280;2366;51.332;6.610;2022-12-20T09:04:23;101153.81;;;12.90;73.04
4705;BME280;2366;51.332;6.610;2022-12-20T09:06:48;101154.28;;;12.97;72.90
4705;BME280;2366;51.332;6.610;2022-12-20T09:09:13;101158.09;;;12.93;73.13
4705;BME280;2366;51.332;6.610;2022-12-20T09:11:40;101152.94;;;12.90;73.06
4705;BME280;2366;51.332;6.610;2022-12-20T09:14:05;101163.59;;;12.90;73.02
4705;BME280;2366;51.332;6.610;2022-12-20T09:16:32;101151.91;;;12.92;72.93
4705;BME280;2366;51.332;6.610;2022-12-20T09:18:59;101160.22;;;13.01;72.94
4705;BME280;2366;51.332;6.610;2022-12-20T09:21:25;101151.50;;;12.99;73.16
4705;BME280;2366;51.332;6.610;2022-12-20T09:23:51;101148.50;;;12.90;73.57
4705;BME280;2366;51.332;6.610;2022-12-20T09:26:18;101150.19;;;12.91;73.88
4705;BME280;2366;51.332;6.610;2022-12-20T09:28:45;101153.66;;;13.06;73.68
4705;BME280;2366;51.332;6.610;2022-12-20T09:31:13;101156.34;;;13.06;73.66
4705;BME280;2366;51.332;6.610;2022-12-20T09:33:39;101153.75;;;13.05;73.87
4705;BME280;2366;51.332;6.610;2022-12-20T09:36:04;101148.13;;;13.09;73.93
4705;BME280;2366;51.332;6.610;2022-12-20T09:38:30;101157.41;;;13.04;74.03
4705;BME280;2366;51.332;6.610;2022-12-20T09:40:58;101149.00;;;13.10;73.80
4705;BME280;2366;51.332;6.610;2022-12-20T09:43:25;101141.28;;;13.20;73.62
4705;BME280;2366;51.332;6.610;2022-12-20T09:45:55;101139.91;;;13.27;73.43
4705;BME280;2366;51.332;6.610;2022-12-20T09:48:24;101142.78;;;13.24;73.51
4705;BME280;2366;51.332;6.610;2022-12-20T09:51:03;101153.81;;;13.18;73.78
4705;BME280;2366;51.332;6.610;2022-12-20T09:56:30;101156.94;;;13.24;73.40
4705;BME280;2366;51.332;6.610;2022-12-20T09:59:17;101148.00;;;13.25;73.24
4705;BME280;2366;51.332;6.610;2022-12-20T10:01:48;101155.72;;;13.30;73.38
4705;BME280;2366;51.332;6.610;2022-12-20T10:09:59;101140.97;;;13.24;73.28
4705;BME280;2366;51.332;6.610;2022-12-20T10:12:44;101134.41;;;13.30;73.31
4705;BME280;2366;51.332;6.610;2022-12-20T10:15:42;101142.56;;;13.41;73.11
4705;BME280;2366;51.332;6.610;2022-12-20T10:23:44;101123.38;;;13.36;73.13
4705;BME280;2366;51.332;6.610;2022-12-20T10:26:12;101118.88;;;13.37;72.58
4705;BME280;2366;51.332;6.610;2022-12-20T10:28:38;101115.06;;;13.41;73.03
4705;BME280;2366;51.332;6.610;2022-12-20T10:31:15;101114.44;;;13.50;72.94
4705;BME280;2366;51.332;6.610;2022-12-20T10:33:42;101125.31;;;13.60;72.71
4705;BME280;2366;51.332;6.610;2022-12-20T10:36:32;101113.19;;;13.55;72.93
4705;BME280;2366;51.332;6.610;2022-12-20T10:39:00;101115.41;;;13.62;72.34
4705;BME280;2366;51.332;6.610;2022-12-20T10:41:45;101105.81;;;13.59;72.61
4705;BME280;2366;51.332;6.610;2022-12-20T10:44:27;101103.94;;;13.74;72.00
4705;BME280;2366;51.332;6.610;2022-12-20T10:46:55;101097.34;;;13.80;71.87
4705;BME280;2366;51.332;6.610;2022-12-20T10:49:29;101093.59;;;13.82;71.87
4705;BME280;2366;51.332;6.610;2022-12-20T10:54:31;101090.53;;;13.88;71.41
4705;BME280;2366;51.332;6.610;2022-12-20T10:56:59;101081.66;;;13.88;71.68
4705;BME280;2366;51.332;6.610;2022-12-20T10:59:30;101096.03;;;13.85;71.48
4705;BME280;2366;51.332;6.610;2022-12-20T11:01:57;101092.53;;;13.72;71.91
4705;BME280;2366;51.332;6.610;2022-12-20T11:04:33;101079.63;;;13.79;72.02
4705;BME280;2366;51.332;6.610;2022-12-20T11:07:02;101085.94;;;13.77;71.43
4705;BME280;2366;51.332;6.610;2022-12-20T11:09:34;101079.13;;;13.86;71.41
4705;BME280;2366;51.332;6.610;2022-12-20T11:12:03;101076.13;;;13.91;71.05
4705;BME280;2366;51.332;6.610;2022-12-20T11:14:30;101076.53;;;13.97;71.09
4705;BME280;2366;51.332;6.610;2022-12-20T11:16:57;101073.97;;;13.96;70.47
4705;BME280;2366;51.332;6.610;2022-12-20T11:19:53;101067.81;;;13.95;70.68
4705;BME280;2366;51.332;6.610;2022-12-20T11:25:29;101057.47;;;13.91;70.70
4705;BME280;2366;51.332;6.610;2022-12-20T11:28:45;101053.31;;;13.87;70.71
4705;BME280;2366;51.332;6.610;2022-12-20T11:37:30;101050.97;;;13.95;70.91
4705;BME280;2366;51.332;6.610;2022-12-20T11:42:43;101049.47;;;14.04;70.55
4705;BME280;2366;51.332;6.610;2022-12-20T11:45:30;101038.25;;;14.11;70.16
4705;BME280;2366;51.332;6.610;2022-12-20T11:53:56;101034.78;;;14.35;69.35
4705;BME280;2366;51.332;6.610;2022-12-20T11:56:29;101031.91;;;14.38;69.02
4705;BME280;2366;51.332;6.610;2022-12-20T11:59:18;101021.50;;;14.59;68.77
4705;BME280;2366;51.332;6.610;2022-12-20T12:01:56;101022.25;;;14.61;68.36
4705;BME280;2366;51.332;6.610;2022-12-20T12:04:29;101013.06;;;14.65;68.38
4705;BME280;2366;51.332;6.610;2022-12-20T12:07:20;101013.06;;;14.65;68.24
4705;BME280;2366;51.332;6.610;2022-12-20T12:09:56;101015.53;;;14.68;68.06
4705;BME280;2366;51.332;6.610;2022-12-20T12:12:28;101022.00;;;14.77;67.94
4705;BME280;2366;51.332;6.610;2022-12-20T12:17:57;101026.97;;;14.82;67.27
4705;BME280;2366;51.332;6.610;2022-12-20T12:23:23;101020.38;;;14.74;67.01
4705;BME280;2366;51.332;6.610;2022-12-20T12:25:51;101018.59;;;14.75;67.34
4705;BME280;2366;51.332;6.610;2022-12-20T12:28:19;101025.41;;;14.79;67.44
4705;BME280;2366;51.332;6.610;2022-12-20T12:30:48;101021.13;;;14.76;67.06
4705;BME280;2366;51.332;6.610;2022-12-20T12:33:21;101024.25;;;14.70;67.67
4705;BME280;2366;51.332;6.610;2022-12-20T12:46:47;101021.84;;;14.42;75.98
4705;BME280;2366;51.332;6.610;2022-12-20T12:49:18;101018.91;;;14.33;77.47
4705;BME280;2366;51.332;6.610;2022-12-20T12:52:03;101018.28;;;14.30;78.65
4705;BME280;2366;51.332;6.610;2022-12-20T12:57:01;101009.16;;;14.45;79.24
4705;BME280;2366;51.332;6.610;2022-12-20T13:05:00;101013.34;;;14.36;79.83
4705;BME280;2366;51.332;6.610;2022-12-20T13:07:41;101001.59;;;14.39;79.87
4705;BME280;2366;51.332;6.610;2022-12-20T13:17:58;101013.28;;;14.25;80.77
4705;BME280;2366;51.332;6.610;2022-12-20T13:20:32;101005.47;;;14.22;80.72
4705;BME280;2366;51.332;6.610;2022-12-20T13:25:34;101004.47;;;14.12;81.51
4705;BME280;2366;51.332;6.610;2022-12-20T13:30:41;101001.38;;;14.05;81.79
4705;BME280;2366;51.332;6.610;2022-12-20T13:33:43;101005.09;;;14.03;81.97
4705;BME280;2366;51.332;6.610;2022-12-20T13:43:58;101013.22;;;14.01;81.84
4705;BME280;2366;51.332;6.610;2022-12-20T13:46:31;101011.41;;;14.02;81.92
4705;BME280;2366;51.332;6.610;2022-12-20T13:49:04;101021.22;;;14.01;81.94
4705;BME280;2366;51.332;6.610;2022-12-20T13:51:33;101012.66;;;13.96;81.86
4705;BME280;2366;51.332;6.610;2022-12-20T13:54:04;101019.94;;;13.94;82.11
4705;BME280;2366;51.332;6.610;2022-12-20T13:56:47;101021.84;;;13.92;82.37
4705;BME280;2366;51.332;6.610;2022-12-20T14:01:48;101008.34;;;13.82;82.50
4705;BME280;2366;51.332;6.610;2022-12-20T14:04:14;101007.16;;;13.86;82.48
4705;BME280;2366;51.332;6.610;2022-12-20T14:06:40;101009.19;;;13.83;82.64
4705;BME280;2366;51.332;6.610;2022-12-20T14:09:26;101010.56;;;13.75;82.82
4705;BME280;2366;51.332;6.610;2022-12-20T14:11:52;101007.06;;;13.75;82.80
4705;BME280;2366;51.332;6.610;2022-12-20T14:14:17;101014.09;;;13.76;82.85
4705;BME280;2366;51.332;6.610;2022-12-20T14:16:43;101014.09;;;13.76;83.01
4705;BME280;2366;51.332;6.610;2022-12-20T14:19:13;101007.59;;;13.67;82.99
4705;BME280;2366;51.332;6.610;2022-12-20T14:21:42;101011.75;;;13.71;83.17
4705;BME280;2366;51.332;6.610;2022-12-20T14:24:13;101002.69;;;13.74;83.05
4705;BME280;2366;51.332;6.610;2022-12-20T14:26:42;101007.16;;;13.73;83.20
4705;BME280;2366;51.332;6.610;2022-12-20T14:29:11;101005.34;;;13.74;83.20
4705;BME280;2366;51.332;6.610;2022-12-20T14:31:40;101000.34;;;13.69;83.47
4705;BME280;2366;51.332;6.610;2022-12-20T14:36:45;100998.75;;;13.67;83.22
4705;BME280;2366;51.332;6.610;2022-12-20T14:39:29;101001.09;;;13.59;83.60
4705;BME280;2366;51.332;6.610;2022-12-20T14:42:04;100994.25;;;13.54;83.91
4705;BME280;2366;51.332;6.610;2022-12-20T14:44:39;100996.94;;;13.54;84.55
4705;BME280;2366;51.332;6.610;2022-12-20T14:49:37;100984.91;;;13.36;86.45
4705;BME280;2366;51.332;6.610;2022-12-20T14:52:14;100990.63;;;13.30;90.65
4705;BME280;2366;51.332;6.610;2022-12-20T14:57:32;100983.75;;;13.13;97.78
4705;BME280;2366;51.332;6.610;2022-12-20T15:08:21;100970.09;;;13.05;99.40
4705;BME280;2366;51.332;6.610;2022-12-20T15:13:42;100968.06;;;12.95;100.00